Time;durP1;ratioP1;P1;durP2;ratioP2;P2;SDS_P1;SDS_P2;PMS_P1;PMS_P2;Temp;Humidity;BMP_temperature;BMP_pressure;BME280_temperature;BME280_humidity;BME280_pressure;Samples;Min_cycle;Max_cycle;Signal;HPM_P1;HPM_P2
2021/10/30 00:02:09;;;;;;;2.38;1.73;;;19.60;57.90;;;;;;5041897;28;20029;-79
2021/10/30 00:04:35;;;;;;;2.05;1.60;;;19.50;57.90;;;;;;5038846;28;20021;-78
2021/10/30 00:07:04;;;;;;;1.80;1.58;;;19.50;57.90;;;;;;5037965;28;20028;-79
2021/10/30 00:09:31;;;;;;;2.67;1.70;;;19.50;57.90;;;;;;5036155;28;20510;-79
2021/10/30 00:12:00;;;;;;;2.03;1.63;;;19.50;57.90;;;;;;5036871;28;20097;-79
2021/10/30 00:14:26;;;;;;;1.70;1.60;;;19.50;57.90;;;;;;5019479;28;20017;-78
2021/10/30 00:16:52;;;;;;;2.38;1.70;;;19.50;57.90;;;;;;5035896;28;20033;-78
2021/10/30 00:19:18;;;;;;;2.15;1.80;;;19.50;58.00;;;;;;5038881;28;20097;-78
2021/10/30 00:21:45;;;;;;;1.80;1.65;;;19.50;58.00;;;;;;5036341;28;20357;-79
2021/10/30 00:24:14;;;;;;;2.33;1.65;;;19.50;58.00;;;;;;5035377;28;20009;-79
2021/10/30 00:26:40;;;;;;;1.70;1.60;;;19.50;58.10;;;;;;5020194;28;20429;-79
2021/10/30 00:29:06;;;;;;;2.40;1.42;;;19.50;58.00;;;;;;5036401;28;20033;-79
2021/10/30 00:31:32;;;;;;;2.03;1.52;;;19.50;58.00;;;;;;5034576;28;20361;-78
2021/10/30 00:33:59;;;;;;;1.52;1.42;;;19.50;58.00;;;;;;5017058;28;20070;-79
2021/10/30 00:36:24;;;;;;;1.70;1.50;;;19.50;58.00;;;;;;5034203;28;20376;-79
2021/10/30 00:38:51;;;;;;;1.95;1.50;;;19.50;58.10;;;;;;5018374;28;20022;-79
2021/10/30 00:41:17;;;;;;;1.73;1.40;;;19.50;58.10;;;;;;5034696;28;20025;-79
2021/10/30 00:43:44;;;;;;;1.60;1.50;;;19.50;58.10;;;;;;5017468;28;20105;-79
2021/10/30 00:46:10;;;;;;;3.13;1.80;;;19.50;58.10;;;;;;5032209;28;20479;-79
2021/10/30 00:48:37;;;;;;;2.28;1.77;;;19.50;58.10;;;;;;5031728;28;20018;-79
2021/10/30 00:51:03;;;;;;;1.85;1.50;;;19.50;58.10;;;;;;5032736;28;20022;-79
2021/10/30 00:53:32;;;;;;;1.80;1.70;;;19.40;58.00;;;;;;5031698;28;20014;-79
2021/10/30 00:56:03;;;;;;;3.92;1.70;;;19.50;58.10;;;;;;5016044;28;20032;-79
2021/10/30 00:58:31;;;;;;;2.60;1.60;;;19.50;58.10;;;;;;5016013;28;20430;-79
2021/10/30 01:00:57;;;;;;;2.22;1.50;;;19.40;58.10;;;;;;4999047;28;20018;-79
2021/10/30 01:03:23;;;;;;;2.22;1.90;;;19.40;58.10;;;;;;5015089;28;20435;-79
2021/10/30 01:05:52;;;;;;;1.58;1.30;;;19.40;58.10;;;;;;5015367;28;20515;-79
2021/10/30 01:08:19;;;;;;;2.10;1.60;;;19.50;58.20;;;;;;5031440;28;20026;-78
2021/10/30 01:10:45;;;;;;;2.45;1.70;;;19.40;58.10;;;;;;5015366;28;20017;-78
2021/10/30 01:13:11;;;;;;;2.10;1.83;;;19.40;58.10;;;;;;5015252;28;20021;-79
2021/10/30 01:15:38;;;;;;;1.63;1.50;;;19.40;58.10;;;;;;5031369;28;20490;-79
2021/10/30 01:18:07;;;;;;;1.50;1.38;;;19.50;58.20;;;;;;5031270;28;20034;-78
2021/10/30 01:20:33;;;;;;;1.70;1.55;;;19.40;58.10;;;;;;5032635;28;20026;-78
2021/10/30 01:23:01;;;;;;;1.70;1.60;;;19.40;58.10;;;;;;5031479;28;20029;-78
2021/10/30 01:25:27;;;;;;;1.70;1.60;;;19.50;58.20;;;;;;4998857;28;20018;-78
2021/10/30 01:27:56;;;;;;;2.00;1.65;;;19.40;58.10;;;;;;5015062;28;20022;-78
2021/10/30 01:30:22;;;;;;;2.08;1.70;;;19.40;58.20;;;;;;5015366;28;20024;-78
2021/10/30 01:32:59;;;;;;;1.50;1.40;;;19.40;58.20;;;;;;5033532;28;20057;-78
2021/10/30 01:35:30;;;;;;;1.73;1.63;;;19.40;58.20;;;;;;5035052;28;20041;-78
2021/10/30 01:37:59;;;;;;;3.50;1.52;;;19.40;58.20;;;;;;5002238;28;20108;-78
2021/10/30 01:40:24;;;;;;;2.28;1.60;;;19.40;58.20;;;;;;5036195;28;20017;-78
2021/10/30 01:43:01;;;;;;;1.85;1.48;;;19.40;58.20;;;;;;5035072;28;20014;-78
2021/10/30 01:45:30;;;;;;;1.60;1.50;;;19.40;58.20;;;;;;5002015;28;20020;-78
2021/10/30 01:47:55;;;;;;;2.08;1.63;;;19.40;58.20;;;;;;5034908;28;20045;-78
2021/10/30 01:50:22;;;;;;;2.35;1.65;;;19.40;58.20;;;;;;5018845;28;20093;-78
2021/10/30 01:52:48;;;;;;;2.08;1.63;;;19.40;58.20;;;;;;5035939;28;20030;-78
2021/10/30 01:55:15;;;;;;;1.63;1.50;;;19.40;58.20;;;;;;5018305;28;20057;-78
2021/10/30 01:57:41;;;;;;;2.35;1.67;;;19.40;58.30;;;;;;5001827;28;20038;-78
2021/10/30 02:00:08;;;;;;;2.13;1.70;;;19.40;58.30;;;;;;5034510;28;20025;-78
2021/10/30 02:02:34;;;;;;;2.25;1.90;;;19.40;58.30;;;;;;5001656;28;20134;-79
2021/10/30 02:05:00;;;;;;;1.95;1.75;;;19.40;58.20;;;;;;5018224;28;20006;-78
2021/10/30 02:07:27;;;;;;;1.80;1.70;;;19.40;58.30;;;;;;5018335;28;20051;-79
2021/10/30 02:09:53;;;;;;;1.55;1.45;;;19.30;58.30;;;;;;5034395;28;20138;-78
2021/10/30 02:12:19;;;;;;;2.00;1.67;;;19.30;58.30;;;;;;5018057;28;20490;-78
2021/10/30 02:14:48;;;;;;;2.38;1.85;;;19.30;58.30;;;;;;5001595;28;20056;-78
2021/10/30 02:17:14;;;;;;;1.75;1.65;;;19.40;58.30;;;;;;5034403;28;20060;-78
2021/10/30 02:19:41;;;;;;;2.22;1.75;;;19.30;58.30;;;;;;5035655;28;20085;-78
2021/10/30 02:22:07;;;;;;;1.40;1.30;;;19.30;58.20;;;;;;5017802;28;20186;-78
2021/10/30 02:24:33;;;;;;;1.95;1.63;;;19.40;58.30;;;;;;5035332;28;20568;-79
2021/10/30 02:26:59;;;;;;;1.95;1.52;;;19.30;58.30;;;;;;5017702;28;20427;-79
2021/10/30 02:29:25;;;;;;;1.75;1.50;;;19.40;58.30;;;;;;5034118;28;20380;-78
2021/10/30 02:31:53;;;;;;;1.95;1.75;;;19.40;58.30;;;;;;5035387;28;20072;-78
2021/10/30 02:34:19;;;;;;;2.33;1.58;;;19.40;58.30;;;;;;5035218;28;20029;-79
2021/10/30 02:36:45;;;;;;;1.90;1.65;;;19.40;58.30;;;;;;5017513;28;20023;-79
2021/10/30 02:39:14;;;;;;;2.25;1.67;;;19.40;58.90;;;;;;5033773;28;20024;-78
2021/10/30 02:41:40;;;;;;;2.35;1.63;;;19.40;58.30;;;;;;5037961;28;20120;-78
2021/10/30 02:44:10;;;;;;;1.85;1.55;;;19.40;58.30;;;;;;5036382;28;20034;-80
2021/10/30 02:46:36;;;;;;;1.90;1.60;;;19.30;58.30;;;;;;5019958;28;20048;-79
2021/10/30 02:49:02;;;;;;;1.70;1.60;;;19.30;58.30;;;;;;5036459;28;20025;-79
2021/10/30 02:51:29;;;;;;;1.73;1.60;;;19.40;58.30;;;;;;5020468;28;20090;-79
2021/10/30 02:53:56;;;;;;;1.67;1.52;;;19.30;58.20;;;;;;5037332;28;20013;-79
2021/10/30 02:56:21;;;;;;;1.70;1.60;;;19.30;58.30;;;;;;5003205;28;20113;-79
2021/10/30 02:58:51;;;;;;;2.92;1.83;;;19.30;58.30;;;;;;5034712;28;20484;-79
2021/10/30 03:01:17;;;;;;;1.77;1.67;;;19.30;58.30;;;;;;5037393;28;20133;-78
2021/10/30 03:03:43;;;;;;;1.88;1.70;;;19.30;58.40;;;;;;5039472;28;20053;-79
2021/10/30 03:06:09;;;;;;;1.67;1.58;;;19.30;58.40;;;;;;5039728;28;20035;-79
2021/10/30 03:08:38;;;;;;;1.70;1.60;;;19.30;58.40;;;;;;5022425;28;20017;-79
2021/10/30 03:11:05;;;;;;;2.15;1.58;;;19.30;58.40;;;;;;5039851;28;20068;-79
2021/10/30 03:13:32;;;;;;;1.75;1.65;;;19.30;58.30;;;;;;5040502;28;20017;-82
2021/10/30 03:15:58;;;;;;;1.95;1.58;;;19.30;58.30;;;;;;5043584;28;20029;-79
2021/10/30 03:18:23;;;;;;;1.98;1.63;;;19.30;58.30;;;;;;5045019;28;20108;-79
2021/10/30 03:20:49;;;;;;;1.70;1.50;;;19.30;58.40;;;;;;5047582;28;20026;-79
2021/10/30 03:23:15;;;;;;;2.00;1.45;;;19.30;58.40;;;;;;5028980;28;20092;-80
2021/10/30 03:25:41;;;;;;;1.92;1.73;;;19.30;58.40;;;;;;5047163;28;20388;-80
2021/10/30 03:28:07;;;;;;;2.95;1.60;;;19.30;58.40;;;;;;5015515;28;20009;-80
2021/10/30 03:30:33;;;;;;;2.35;1.50;;;19.30;58.40;;;;;;5046134;28;20492;-79
2021/10/30 03:32:59;;;;;;;1.85;1.75;;;19.30;58.40;;;;;;5046529;28;20032;-81
2021/10/30 03:35:26;;;;;;;3.97;1.70;;;19.30;58.40;;;;;;5026821;28;20100;-81
2021/10/30 03:37:54;;;;;;;1.90;1.50;;;19.30;58.40;;;;;;5039832;28;20111;-81
2021/10/30 03:40:19;;;;;;;1.75;1.65;;;19.30;58.40;;;;;;5008635;28;20093;-81
2021/10/30 03:42:48;;;;;;;1.73;1.50;;;19.30;58.40;;;;;;5040510;28;20369;-80
2021/10/30 03:45:14;;;;;;;1.63;1.40;;;19.30;58.40;;;;;;5038144;28;20499;-81
2021/10/30 03:47:40;;;;;;;1.80;1.63;;;19.30;58.40;;;;;;5036948;28;20034;-81
2021/10/30 03:50:06;;;;;;;1.65;1.23;;;19.30;58.40;;;;;;5037528;28;20013;-80
2021/10/30 03:52:32;;;;;;;1.50;1.40;;;19.30;58.50;;;;;;5035903;28;20040;-80
2021/10/30 03:54:58;;;;;;;1.83;1.33;;;19.30;58.50;;;;;;5019557;28;20030;-80
2021/10/30 03:57:23;;;;;;;1.70;1.60;;;19.30;58.50;;;;;;5033974;28;20072;-81
2021/10/30 03:59:50;;;;;;;2.03;1.45;;;19.30;58.50;;;;;;5017282;28;20037;-80
2021/10/30 04:02:16;;;;;;;1.83;1.73;;;19.30;59.00;;;;;;5016177;28;20097;-80
2021/10/30 04:04:42;;;;;;;2.15;1.80;;;19.30;58.50;;;;;;5033223;28;20053;-80
2021/10/30 04:07:08;;;;;;;1.40;1.27;;;19.30;58.50;;;;;;5000407;28;20112;-80
2021/10/30 04:09:34;;;;;;;2.63;1.70;;;19.30;58.50;;;;;;5017167;28;20014;-80
2021/10/30 04:12:01;;;;;;;1.67;1.52;;;19.30;58.50;;;;;;5033378;28;20025;-80
2021/10/30 04:14:30;;;;;;;1.60;1.50;;;19.30;58.60;;;;;;5033857;28;20025;-80
2021/10/30 04:16:56;;;;;;;1.63;1.50;;;19.20;58.50;;;;;;5016218;28;20407;-80
2021/10/30 04:19:22;;;;;;;1.98;1.45;;;19.20;58.50;;;;;;5033841;28;20364;-80
2021/10/30 04:21:49;;;;;;;1.63;1.50;;;19.30;58.50;;;;;;5034832;28;20082;-80
2021/10/30 04:24:18;;;;;;;1.52;1.40;;;19.30;58.50;;;;;;5039354;28;20032;-78
2021/10/30 04:26:44;;;;;;;1.85;1.40;;;19.30;58.50;;;;;;5037586;28;20018;-80
2021/10/30 04:29:13;;;;;;;2.33;1.70;;;19.30;58.50;;;;;;5033696;28;20093;-80
2021/10/30 04:31:39;;;;;;;1.65;1.50;;;19.30;58.50;;;;;;4999641;28;20022;-80
2021/10/30 04:34:07;;;;;;;2.10;1.50;;;19.30;58.50;;;;;;5031700;28;20044;-80
2021/10/30 04:36:35;;;;;;;1.80;1.55;;;19.20;58.50;;;;;;5033099;28;20036;-80
2021/10/30 04:39:01;;;;;;;1.50;1.40;;;19.20;58.50;;;;;;5015780;28;20502;-80
2021/10/30 04:41:28;;;;;;;1.38;1.27;;;19.30;58.50;;;;;;5031574;28;20019;-80
2021/10/30 04:43:54;;;;;;;1.70;1.42;;;19.20;58.50;;;;;;5032067;28;20049;-80
2021/10/30 04:46:21;;;;;;;1.73;1.48;;;19.20;58.50;;;;;;5033289;28;20081;-79
2021/10/30 04:48:50;;;;;;;1.85;1.50;;;19.20;58.50;;;;;;5015311;28;20021;-80
2021/10/30 04:51:16;;;;;;;2.65;1.80;;;19.20;58.60;;;;;;5015634;28;20097;-80
2021/10/30 04:53:43;;;;;;;1.58;1.48;;;19.20;58.60;;;;;;5015141;28;20057;-80
2021/10/30 04:56:10;;;;;;;1.63;1.40;;;19.20;58.60;;;;;;5032038;28;20017;-80
2021/10/30 04:58:41;;;;;;;1.95;1.48;;;19.20;58.60;;;;;;5031619;28;20506;-80
2021/10/30 05:01:07;;;;;;;1.92;1.50;;;19.20;58.60;;;;;;5031598;28;20044;-80
2021/10/30 05:03:33;;;;;;;2.20;1.67;;;19.30;58.50;;;;;;5030844;28;20045;-80
2021/10/30 05:05:59;;;;;;;1.60;1.45;;;19.20;58.50;;;;;;5032956;28;20547;-79
2021/10/30 05:08:25;;;;;;;1.33;1.23;;;19.20;58.50;;;;;;5034985;28;20021;-80
2021/10/30 05:10:52;;;;;;;1.48;1.38;;;19.20;58.60;;;;;;5022428;28;20100;-80
2021/10/30 05:13:17;;;;;;;2.10;1.52;;;19.20;58.60;;;;;;5022071;28;20503;-80
2021/10/30 05:15:44;;;;;;;1.50;1.30;;;19.20;58.60;;;;;;5020291;28;20108;-80
2021/10/30 05:18:09;;;;;;;1.83;1.60;;;19.20;58.60;;;;;;5003197;28;20514;-80
2021/10/30 05:20:36;;;;;;;2.03;1.60;;;19.20;58.60;;;;;;5003272;28;20022;-80
2021/10/30 05:23:02;;;;;;;2.78;1.95;;;19.20;58.60;;;;;;5042109;28;20037;-79
2021/10/30 05:25:29;;;;;;;2.28;1.50;;;19.20;58.60;;;;;;5044163;28;20025;-80
2021/10/30 05:27:55;;;;;;;1.60;1.45;;;19.20;58.70;;;;;;5038489;28;20053;-79
2021/10/30 05:30:21;;;;;;;2.10;1.30;;;19.20;58.60;;;;;;5035997;28;20017;-80
2021/10/30 05:32:48;;;;;;;1.88;1.50;;;19.20;58.60;;;;;;5035424;28;20033;-80
2021/10/30 05:35:14;;;;;;;1.73;1.50;;;19.20;58.60;;;;;;5036750;28;20463;-79
2021/10/30 05:37:40;;;;;;;1.50;1.40;;;19.20;58.70;;;;;;5018531;28;20091;-80
2021/10/30 05:40:09;;;;;;;1.70;1.50;;;19.20;58.60;;;;;;5035600;28;20022;-78
2021/10/30 05:42:38;;;;;;;1.73;1.33;;;19.20;58.60;;;;;;5037857;28;20072;-79
2021/10/30 05:45:07;;;;;;;1.83;1.52;;;19.20;58.70;;;;;;5025332;28;20036;-77
2021/10/30 05:47:35;;;;;;;1.80;1.50;;;19.20;58.70;;;;;;5041139;28;20047;-80
2021/10/30 05:50:01;;;;;;;1.95;1.50;;;19.20;58.70;;;;;;5023983;28;20021;-78
2021/10/30 05:52:27;;;;;;;1.75;1.60;;;19.20;58.70;;;;;;5042999;28;20037;-81
2021/10/30 05:54:53;;;;;;;1.35;1.25;;;19.20;58.70;;;;;;5042699;28;20017;-79
2021/10/30 05:57:19;;;;;;;1.60;1.50;;;19.20;58.70;;;;;;5040878;28;20100;-78
2021/10/30 05:59:46;;;;;;;1.60;1.50;;;19.10;58.70;;;;;;5041451;28;20048;-78
2021/10/30 06:02:12;;;;;;;1.75;1.60;;;19.20;58.70;;;;;;5042298;28;20508;-79
2021/10/30 06:04:41;;;;;;;1.70;1.50;;;19.20;58.80;;;;;;5006927;28;20116;-80
2021/10/30 06:07:08;;;;;;;1.60;1.40;;;19.10;58.70;;;;;;5038561;28;20383;-79
2021/10/30 06:09:35;;;;;;;1.65;1.50;;;19.20;58.80;;;;;;5021802;28;20018;-79
2021/10/30 06:12:01;;;;;;;1.67;1.45;;;19.20;58.80;;;;;;5042175;28;20031;-79
2021/10/30 06:14:27;;;;;;;1.88;1.50;;;19.10;58.70;;;;;;5009960;28;20021;-80
2021/10/30 06:16:53;;;;;;;1.60;1.50;;;19.20;58.80;;;;;;5044565;28;20070;-79
2021/10/30 06:19:20;;;;;;;1.58;1.40;;;19.20;58.80;;;;;;5007513;28;20037;-79
2021/10/30 06:21:46;;;;;;;1.67;1.35;;;19.10;58.70;;;;;;5041405;28;20464;-79
2021/10/30 06:24:12;;;;;;;1.58;1.42;;;19.20;58.80;;;;;;5024409;28;20013;-79
2021/10/30 06:26:39;;;;;;;1.58;1.48;;;19.20;58.80;;;;;;5025416;28;20014;-78
2021/10/30 06:29:05;;;;;;;1.60;1.40;;;19.10;58.70;;;;;;5024517;28;20383;-79
2021/10/30 06:31:32;;;;;;;1.58;1.38;;;19.10;58.70;;;;;;5025941;28;20083;-80
2021/10/30 06:33:58;;;;;;;1.70;1.60;;;19.20;58.80;;;;;;5042715;28;20018;-80
2021/10/30 06:36:25;;;;;;;1.38;1.27;;;19.10;58.80;;;;;;5039482;28;20014;-80
2021/10/30 06:38:51;;;;;;;2.42;1.30;;;19.10;58.70;;;;;;5041306;28;20026;-79
2021/10/30 06:41:18;;;;;;;1.35;1.25;;;19.10;58.70;;;;;;5025674;28;20412;-80
2021/10/30 06:43:44;;;;;;;1.80;1.70;;;19.20;58.80;;;;;;5022562;28;20067;-80
2021/10/30 06:46:09;;;;;;;1.42;1.33;;;19.10;58.70;;;;;;5007516;28;20018;-79
2021/10/30 06:48:36;;;;;;;1.45;1.35;;;19.20;58.80;;;;;;5023859;28;20066;-79
2021/10/30 06:51:04;;;;;;;2.45;1.50;;;19.10;58.70;;;;;;5024635;28;20029;-79
2021/10/30 06:53:30;;;;;;;1.85;1.40;;;19.20;58.80;;;;;;5042114;28;20064;-80
2021/10/30 06:55:58;;;;;;;1.40;1.30;;;19.10;58.70;;;;;;5023325;28;20468;-80
2021/10/30 06:58:27;;;;;;;1.58;1.48;;;19.10;58.80;;;;;;5019561;28;20108;-80
2021/10/30 07:00:53;;;;;;;2.03;1.50;;;19.20;58.90;;;;;;5004496;28;20017;-80
2021/10/30 07:03:19;;;;;;;1.42;1.33;;;19.10;58.80;;;;;;5020942;28;20557;-79
2021/10/30 07:05:48;;;;;;;1.40;1.27;;;19.10;58.80;;;;;;5004750;28;20038;-80
2021/10/30 07:08:14;;;;;;;1.48;1.38;;;19.10;58.80;;;;;;5037564;28;20070;-80
2021/10/30 07:10:40;;;;;;;1.73;1.30;;;19.10;58.80;;;;;;5021948;28;20391;-80
2021/10/30 07:13:06;;;;;;;1.50;1.40;;;19.10;58.80;;;;;;5021468;28;20021;-79
2021/10/30 07:15:32;;;;;;;1.80;1.50;;;19.10;58.80;;;;;;5004779;28;20159;-80
2021/10/30 07:17:58;;;;;;;2.10;1.30;;;19.10;58.80;;;;;;5018899;28;20120;-80
2021/10/30 07:20:24;;;;;;;1.83;1.40;;;19.10;58.80;;;;;;5036952;28;20383;-80
2021/10/30 07:22:50;;;;;;;1.40;1.30;;;19.20;58.80;;;;;;5034897;28;20025;-80
2021/10/30 07:25:20;;;;;;;1.50;1.27;;;19.20;58.80;;;;;;5001009;28;20013;-80
2021/10/30 07:27:46;;;;;;;1.85;1.30;;;19.10;58.80;;;;;;5033586;28;20010;-80
2021/10/30 07:30:13;;;;;;;1.48;1.38;;;19.10;58.80;;;;;;5017012;28;20090;-80
2021/10/30 07:32:39;;;;;;;1.58;1.48;;;19.10;58.80;;;;;;5017675;28;20024;-80
2021/10/30 07:35:05;;;;;;;1.75;1.30;;;19.20;58.90;;;;;;5033174;28;20025;-80
2021/10/30 07:37:31;;;;;;;1.60;1.40;;;19.10;58.80;;;;;;5016375;28;20036;-80
2021/10/30 07:39:58;;;;;;;1.88;1.65;;;19.10;58.80;;;;;;5016893;28;20018;-79
2021/10/30 07:42:23;;;;;;;1.40;1.30;;;19.10;58.90;;;;;;5000093;28;20472;-80
2021/10/30 07:44:50;;;;;;;2.20;1.30;;;19.10;58.90;;;;;;5016904;28;20022;-81
2021/10/30 07:47:16;;;;;;;3.33;1.42;;;19.10;58.80;;;;;;5032762;28;20021;-80
2021/10/30 07:49:42;;;;;;;1.42;1.17;;;19.10;58.90;;;;;;5033002;28;20028;-80
2021/10/30 07:52:12;;;;;;;1.38;1.27;;;19.10;58.90;;;;;;5016289;28;20017;-79
2021/10/30 07:54:38;;;;;;;1.55;1.40;;;19.10;58.80;;;;;;5033248;28;20018;-79
2021/10/30 07:57:07;;;;;;;1.40;1.30;;;19.10;58.90;;;;;;5017451;28;20017;-80
2021/10/30 07:59:34;;;;;;;1.40;1.30;;;19.10;58.90;;;;;;5017144;28;20033;-80
2021/10/30 08:01:59;;;;;;;1.60;1.50;;;19.10;58.90;;;;;;4999711;28;20014;-79
2021/10/30 08:04:29;;;;;;;1.60;1.40;;;19.10;58.90;;;;;;5016005;28;20052;-80
2021/10/30 08:06:57;;;;;;;1.95;1.52;;;19.10;58.90;;;;;;5016257;28;20017;-80
2021/10/30 08:09:24;;;;;;;2.13;1.27;;;19.10;58.90;;;;;;5016083;28;20577;-80
2021/10/30 08:11:50;;;;;;;2.25;1.20;;;19.10;58.90;;;;;;5017701;28;20073;-80
2021/10/30 08:14:16;;;;;;;1.50;1.40;;;19.10;58.90;;;;;;5033413;28;20025;-80
2021/10/30 08:16:41;;;;;;;1.50;1.40;;;19.10;58.90;;;;;;5016525;28;20010;-79
2021/10/30 08:19:07;;;;;;;1.30;1.20;;;19.10;58.90;;;;;;5032264;28;20053;-80
2021/10/30 08:21:35;;;;;;;1.38;1.27;;;19.10;58.90;;;;;;5034409;28;20021;-80
2021/10/30 08:24:05;;;;;;;1.67;1.30;;;19.10;58.90;;;;;;5017602;28;20009;-79
2021/10/30 08:26:33;;;;;;;1.42;1.33;;;19.10;58.90;;;;;;5017168;28;20036;-80
2021/10/30 08:28:59;;;;;;;2.30;1.48;;;19.10;59.50;;;;;;5000160;28;20021;-80
2021/10/30 08:31:25;;;;;;;1.52;1.40;;;19.10;58.90;;;;;;5032003;28;20024;-80
2021/10/30 08:33:52;;;;;;;1.30;1.20;;;19.10;58.90;;;;;;5033114;28;20071;-80
2021/10/30 08:36:18;;;;;;;1.55;1.15;;;19.10;58.90;;;;;;4999516;28;20111;-80
2021/10/30 08:38:47;;;;;;;1.70;1.60;;;19.10;59.00;;;;;;5031949;28;20060;-80
2021/10/30 08:41:13;;;;;;;1.60;1.42;;;19.10;59.50;;;;;;5015601;28;20018;-80
2021/10/30 08:43:39;;;;;;;1.50;1.40;;;19.10;59.00;;;;;;5032751;28;20076;-80
2021/10/30 08:46:08;;;;;;;1.40;1.25;;;19.10;59.00;;;;;;5015760;28;20025;-80
2021/10/30 08:48:37;;;;;;;1.52;1.10;;;19.10;59.00;;;;;;5031924;28;20175;-80
2021/10/30 08:51:03;;;;;;;1.67;1.40;;;19.10;59.00;;;;;;5015990;28;20383;-80
2021/10/30 08:53:30;;;;;;;1.98;1.35;;;19.10;59.00;;;;;;5015691;28;20029;-79
2021/10/30 08:55:58;;;;;;;1.42;1.33;;;19.10;58.90;;;;;;5031814;28;20025;-79
2021/10/30 08:58:27;;;;;;;1.95;1.20;;;19.10;59.00;;;;;;5032038;28;20536;-80
2021/10/30 09:00:55;;;;;;;2.25;1.20;;;19.10;59.00;;;;;;5032069;28;20021;-80
2021/10/30 09:03:21;;;;;;;1.45;1.35;;;19.00;58.90;;;;;;5015658;28;20041;-79
2021/10/30 09:05:49;;;;;;;1.38;1.25;;;19.10;59.00;;;;;;5032229;28;20064;-80
2021/10/30 09:08:15;;;;;;;1.75;1.40;;;19.10;59.00;;;;;;5015768;28;20045;-80
2021/10/30 09:10:48;;;;;;;1.45;1.35;;;19.00;58.90;;;;;;5015439;28;20022;-80
2021/10/30 09:13:15;;;;;;;1.98;1.60;;;19.00;58.90;;;;;;5015397;28;20085;-80
2021/10/30 09:15:51;;;;;;;1.30;1.20;;;19.00;58.90;;;;;;4998779;28;20503;-80
2021/10/30 09:18:25;;;;;;;1.52;1.42;;;19.00;58.90;;;;;;5016244;28;20051;-80
2021/10/30 09:20:52;;;;;;;2.70;1.50;;;19.10;59.00;;;;;;5031504;28;20014;-80
2021/10/30 09:23:20;;;;;;;2.28;1.40;;;19.10;59.00;;;;;;4999016;28;20487;-79
2021/10/30 09:26:10;;;;;;;1.90;1.40;;;19.10;58.90;;;;;;5031743;28;20068;-80
2021/10/30 09:28:50;;;;;;;1.40;1.30;;;19.10;58.90;;;;;;5031679;28;20014;-79
2021/10/30 09:31:17;;;;;;;1.40;1.30;;;19.10;59.00;;;;;;5017052;28;20272;-79
2021/10/30 09:33:50;;;;;;;1.65;1.55;;;19.10;59.00;;;;;;5031572;28;20391;-79
2021/10/30 09:36:19;;;;;;;1.38;1.15;;;19.00;58.90;;;;;;5032246;28;20144;-79
2021/10/30 09:38:53;;;;;;;1.33;1.17;;;19.10;59.00;;;;;;4999509;28;20408;-78
2021/10/30 09:41:45;;;;;;;2.05;1.50;;;19.10;59.00;;;;;;5015229;28;20009;-78
2021/10/30 09:44:18;;;;;;;1.55;1.40;;;19.10;59.00;;;;;;5031707;28;20539;-78
2021/10/30 09:46:43;;;;;;;1.40;1.30;;;19.10;58.90;;;;;;5016067;28;20024;-79
2021/10/30 09:49:13;;;;;;;1.80;1.50;;;19.10;59.00;;;;;;5032687;28;20391;-79
2021/10/30 09:51:39;;;;;;;1.50;1.40;;;19.10;59.00;;;;;;5032550;28;20029;-78
2021/10/30 09:54:06;;;;;;;1.23;1.13;;;19.10;59.00;;;;;;4999945;28;20511;-80
2021/10/30 09:56:42;;;;;;;1.50;1.40;;;19.10;58.90;;;;;;5018597;28;20379;-78
2021/10/30 09:59:13;;;;;;;;;;;19.10;58.90;;;;;;5035734;28;20021;-78
2021/10/30 10:01:40;;;;;;;1.92;1.50;;;19.10;58.90;;;;;;5018336;28;19905;-78
2021/10/30 10:04:06;;;;;;;1.65;1.50;;;19.10;58.90;;;;;;5034728;28;20061;-78
2021/10/30 10:06:33;;;;;;;1.70;1.50;;;19.10;59.00;;;;;;5034951;28;20041;-79
2021/10/30 10:09:01;;;;;;;1.40;1.20;;;19.10;59.00;;;;;;5018709;28;20022;-78
2021/10/30 10:11:27;;;;;;;1.30;1.20;;;19.10;58.90;;;;;;5002268;28;20472;-78
2021/10/30 10:13:53;;;;;;;1.83;1.30;;;19.10;59.00;;;;;;5035365;28;20025;-78
2021/10/30 10:16:23;;;;;;;1.55;1.30;;;19.10;59.50;;;;;;5018498;28;20443;-78
2021/10/30 10:18:49;;;;;;;1.40;1.30;;;19.10;59.00;;;;;;5001693;28;20045;-78
2021/10/30 10:21:20;;;;;;;1.65;1.35;;;19.10;59.00;;;;;;5037067;28;20013;-78
2021/10/30 10:23:46;;;;;;;1.63;1.40;;;19.10;59.00;;;;;;5024409;28;20067;-78
2021/10/30 10:26:12;;;;;;;1.98;1.35;;;19.10;59.00;;;;;;5022670;28;20422;-78
2021/10/30 10:28:40;;;;;;;1.30;1.20;;;19.10;59.00;;;;;;5001742;28;20025;-78
2021/10/30 10:31:21;;;;;;;1.30;1.13;;;19.10;59.00;;;;;;5002349;28;20093;-78
2021/10/30 10:34:05;;;;;;;1.65;1.50;;;19.10;58.90;;;;;;5035388;28;20026;-78
2021/10/30 10:36:30;;;;;;;2.08;1.35;;;19.10;59.50;;;;;;5034223;28;20028;-80
2021/10/30 10:38:57;;;;;;;1.58;1.45;;;19.10;58.90;;;;;;5036276;28;20045;-80
2021/10/30 10:41:38;;;;;;;2.38;1.20;;;19.10;58.80;;;;;;5039333;28;20021;-78
2021/10/30 10:44:11;;;;;;;1.25;1.15;;;19.10;58.80;;;;;;5038766;28;20009;-79
2021/10/30 10:46:40;;;;;;;1.40;1.30;;;19.10;58.80;;;;;;5039812;28;20020;-79
2021/10/30 10:52:20;;;;;;;1.60;1.30;;;19.20;58.70;;;;;;5039996;28;20018;-78
2021/10/30 10:54:55;;;;;;;2.03;1.30;;;19.20;58.70;;;;;;5030788;28;20032;-78
2021/10/30 10:57:30;;;;;;;1.40;1.15;;;19.20;58.70;;;;;;5045416;28;20527;-78
2021/10/30 11:00:00;;;;;;;1.23;1.13;;;19.20;58.70;;;;;;5042794;28;20022;-78
2021/10/30 11:02:39;;;;;;;1.75;1.40;;;19.20;58.70;;;;;;5044386;28;20065;-78
2021/10/30 11:05:08;;;;;;;1.80;1.40;;;19.20;58.70;;;;;;5045663;28;20418;-78
2021/10/30 11:07:53;;;;;;;2.30;1.30;;;19.20;58.70;;;;;;5044554;28;20029;-78
2021/10/30 11:10:26;;;;;;;1.75;1.50;;;19.20;58.70;;;;;;5026494;28;20038;-78
2021/10/30 11:13:07;;;;;;;1.40;1.10;;;19.20;58.70;;;;;;5028958;28;20014;-78
2021/10/30 11:15:41;;;;;;;1.55;1.45;;;19.10;58.70;;;;;;5041814;28;20075;-78
2021/10/30 11:18:12;;;;;;;1.17;1.10;;;19.20;58.80;;;;;;5035420;28;20022;-78
2021/10/30 11:20:40;;;;;;;1.25;1.15;;;19.20;58.80;;;;;;5003333;28;20021;-78
2021/10/30 11:23:22;;;;;;;1.45;1.27;;;19.20;58.80;;;;;;5001256;28;20017;-78
2021/10/30 11:26:15;;;;;;;1.35;1.17;;;19.20;58.80;;;;;;5035330;28;20448;-80
2021/10/30 11:28:41;;;;;;;1.30;1.20;;;19.20;58.90;;;;;;5017591;28;20013;-78
2021/10/30 11:31:20;;;;;;;1.35;1.25;;;19.10;58.80;;;;;;5033176;28;20385;-78
2021/10/30 11:34:06;;;;;;;1.55;1.15;;;19.20;58.90;;;;;;5033613;28;20075;-78
2021/10/30 11:36:35;;;;;;;1.20;1.10;;;19.20;58.80;;;;;;5033358;28;20088;-78
2021/10/30 11:39:03;;;;;;;1.60;1.50;;;19.20;58.90;;;;;;5035365;28;20014;-78
2021/10/30 11:41:30;;;;;;;1.15;1.10;;;19.20;58.90;;;;;;5036856;28;20018;-79
2021/10/30 11:44:00;;;;;;;1.40;1.30;;;19.10;58.90;;;;;;5021343;28;20014;-78
2021/10/30 11:46:26;;;;;;;1.33;1.23;;;19.10;58.90;;;;;;5018872;28;20014;-78
2021/10/30 11:48:56;;;;;;;1.40;1.30;;;19.10;59.00;;;;;;5037073;28;20428;-79
2021/10/30 11:51:29;;;;;;;1.90;1.30;;;19.10;59.00;;;;;;5027271;28;20020;-78
2021/10/30 11:53:54;;;;;;;2.20;1.45;;;19.10;59.00;;;;;;5042633;28;20024;-79
2021/10/30 11:56:28;;;;;;;1.15;1.00;;;19.10;59.10;;;;;;5043195;28;20025;-78
2021/10/30 11:58:55;;;;;;;1.23;1.13;;;19.20;59.10;;;;;;5012417;28;20028;-79
2021/10/30 12:01:28;;;;;;;1.30;1.20;;;19.10;59.00;;;;;;5030458;28;20013;-79
2021/10/30 12:03:57;;;;;;;1.23;1.10;;;19.10;59.10;;;;;;5047213;28;20094;-79
2021/10/30 12:06:33;;;;;;;1.30;1.20;;;19.10;59.10;;;;;;5040621;28;20018;-79
2021/10/30 12:09:02;;;;;;;1.30;1.20;;;19.10;59.10;;;;;;5006148;28;20125;-79
2021/10/30 12:11:29;;;;;;;1.10;1.00;;;19.10;59.10;;;;;;5036471;28;20060;-78
2021/10/30 12:13:59;;;;;;;1.30;1.20;;;19.10;59.10;;;;;;5035190;28;20041;-79
2021/10/30 12:16:25;;;;;;;1.20;1.10;;;19.10;59.10;;;;;;5035018;28;20020;-79
2021/10/30 12:18:53;;;;;;;1.65;1.33;;;19.10;59.20;;;;;;5017662;28;20018;-79
2021/10/30 12:21:19;;;;;;;1.75;1.30;;;19.10;59.20;;;;;;5003468;28;20016;-78
2021/10/30 12:24:00;;;;;;;1.30;1.20;;;19.10;59.20;;;;;;5038291;28;20024;-78
2021/10/30 12:26:27;;;;;;;1.38;1.25;;;19.10;59.20;;;;;;5039826;28;20021;-78
2021/10/30 12:28:53;;;;;;;1.10;1.00;;;19.10;59.20;;;;;;5003951;28;20014;-78
2021/10/30 12:31:31;;;;;;;1.25;1.15;;;19.10;59.30;;;;;;5018209;28;20018;-78
2021/10/30 12:33:58;;;;;;;1.40;1.20;;;19.10;59.30;;;;;;5035094;28;20017;-78
2021/10/30 12:36:28;;;;;;;1.30;1.20;;;19.10;59.20;;;;;;5018892;28;20024;-79
2021/10/30 12:38:57;;;;;;;1.70;1.30;;;19.10;59.20;;;;;;5020323;28;20021;-80
2021/10/30 12:41:31;;;;;;;1.30;1.20;;;19.10;59.20;;;;;;5037745;28;20017;-79
2021/10/30 12:43:58;;;;;;;1.10;1.00;;;19.10;59.20;;;;;;5022959;28;20101;-84
2021/10/30 12:46:25;;;;;;;1.20;1.10;;;19.10;59.30;;;;;;5032231;28;20028;-84
2021/10/30 12:48:51;;;;;;;1.33;1.23;;;19.10;59.30;;;;;;5051723;28;20017;-84
2021/10/30 12:51:19;;;;;;;1.08;0.98;;;19.10;59.30;;;;;;5035939;28;20044;-84
2021/10/30 12:53:51;;;;;;;1.30;1.20;;;19.10;59.30;;;;;;5019618;28;20014;-83
2021/10/30 12:56:18;;;;;;;1.17;1.08;;;19.10;59.40;;;;;;5047563;28;20046;-84